createdAt,value
2022-11-17T00:00:15.092Z,2.13
2022-11-17T00:02:42.158Z,2.13
2022-11-17T00:05:09.554Z,2.30
2022-11-17T00:07:36.792Z,2.20
2022-11-17T00:10:04.347Z,2.08
2022-11-17T00:12:49.883Z,2.05
2022-11-17T00:15:17.009Z,1.88
2022-11-17T00:17:44.126Z,1.95
2022-11-17T00:20:30.201Z,1.80
2022-11-17T00:22:57.331Z,2.42
2022-11-17T00:25:24.303Z,2.20
2022-11-17T00:27:51.342Z,2.20
2022-11-17T00:30:36.856Z,1.80
2022-11-17T00:33:23.518Z,1.95
2022-11-17T00:35:54.644Z,2.17
2022-11-17T00:38:21.682Z,1.98
2022-11-17T00:40:48.650Z,1.83
2022-11-17T00:43:15.881Z,1.85
2022-11-17T00:45:42.934Z,1.80
2022-11-17T00:48:10.058Z,2.38
2022-11-17T00:50:37.051Z,2.17
2022-11-17T00:53:04.061Z,2.05
2022-11-17T00:55:31.235Z,2.30
2022-11-17T00:57:58.330Z,1.83
2022-11-17T01:00:25.518Z,2.08
2022-11-17T01:02:52.608Z,2.13
2022-11-17T01:05:20.330Z,2.30
2022-11-17T01:07:47.332Z,1.95
2022-11-17T01:10:15.188Z,2.00
2022-11-17T01:12:42.356Z,1.70
2022-11-17T01:15:09.950Z,2.08
2022-11-17T01:17:37.036Z,1.65
2022-11-17T01:20:04.642Z,1.90
2022-11-17T01:22:31.650Z,2.17
2022-11-17T01:24:58.721Z,2.00
2022-11-17T01:27:25.691Z,1.83
2022-11-17T01:29:52.830Z,2.13
2022-11-17T01:32:19.854Z,1.98
2022-11-17T01:34:47.820Z,2.00
2022-11-17T01:37:20.777Z,2.17
2022-11-17T01:39:49.123Z,1.70
2022-11-17T01:42:26.817Z,1.98
2022-11-17T01:44:57.846Z,2.00
2022-11-17T01:47:44.580Z,2.10
2022-11-17T01:50:29.765Z,1.30
2022-11-17T01:53:00.007Z,2.13
2022-11-17T01:55:34.333Z,1.90
2022-11-17T01:58:31.023Z,1.95
2022-11-17T02:00:58.279Z,1.70
2022-11-17T02:03:26.538Z,2.00
2022-11-17T02:06:17.511Z,2.10
2022-11-17T02:08:47.327Z,2.00
2022-11-17T02:11:17.333Z,1.70
2022-11-17T02:13:45.575Z,2.20
2022-11-17T02:16:14.162Z,2.22
2022-11-17T02:18:42.833Z,2.42
2022-11-17T02:21:39.070Z,2.17
2022-11-17T02:24:15.282Z,2.10
2022-11-17T02:27:00.706Z,2.10
2022-11-17T02:29:56.171Z,1.85
2022-11-17T02:32:31.889Z,2.15
2022-11-17T02:35:36.836Z,2.53
2022-11-17T02:38:32.872Z,2.38
2022-11-17T02:41:11.234Z,1.90
2022-11-17T02:44:04.347Z,1.98
2022-11-17T02:46:54.991Z,2.20
2022-11-17T02:49:30.238Z,2.08
2022-11-17T02:51:59.074Z,1.98
2022-11-17T02:54:29.894Z,2.10
2022-11-17T02:56:56.970Z,1.80
2022-11-17T02:59:29.580Z,1.85
2022-11-17T03:02:28.441Z,2.00
2022-11-17T03:05:43.028Z,2.10
2022-11-17T03:08:34.605Z,1.50
2022-11-17T03:11:04.949Z,2.08
2022-11-17T03:13:52.694Z,2.40
2022-11-17T03:16:22.309Z,1.90
2022-11-17T03:19:09.926Z,2.33
2022-11-17T03:21:36.825Z,2.28
2022-11-17T03:24:08.189Z,3.08
2022-11-17T03:26:39.182Z,7.55
2022-11-17T03:29:13.478Z,3.40
2022-11-17T03:31:43.629Z,3.08
2022-11-17T03:34:15.676Z,2.67
2022-11-17T03:36:48.636Z,2.70
2022-11-17T03:39:25.160Z,3.13
2022-11-17T03:42:00.248Z,3.00
2022-11-17T03:44:30.372Z,3.17
2022-11-17T03:49:52.591Z,2.55
2022-11-17T03:52:20.747Z,2.80
2022-11-17T03:54:48.315Z,2.28
2022-11-17T03:57:27.747Z,2.90
2022-11-17T04:00:08.870Z,2.20
2022-11-17T04:02:36.215Z,2.60
2022-11-17T04:05:06.409Z,2.88
2022-11-17T04:07:37.396Z,2.17
2022-11-17T04:10:05.683Z,2.40
2022-11-17T04:12:51.461Z,2.42
2022-11-17T04:15:37.174Z,2.10
2022-11-17T04:18:05.153Z,2.45
2022-11-17T04:20:36.364Z,2.10
2022-11-17T04:23:09.480Z,2.10
2022-11-17T04:25:57.082Z,1.70
2022-11-17T04:28:37.208Z,1.90
2022-11-17T04:31:17.232Z,1.75
2022-11-17T04:33:46.432Z,1.73
2022-11-17T04:36:15.640Z,2.50
2022-11-17T04:38:44.608Z,2.10
2022-11-17T04:41:31.630Z,2.35
2022-11-17T04:43:59.781Z,2.30
2022-11-17T04:46:27.487Z,1.88
2022-11-17T04:48:55.658Z,1.83
2022-11-17T04:51:23.684Z,2.17
2022-11-17T04:53:51.538Z,1.95
2022-11-17T04:56:22.951Z,2.70
2022-11-17T04:58:50.566Z,2.15
2022-11-17T05:01:19.199Z,2.60
2022-11-17T05:03:48.957Z,2.75
2022-11-17T05:06:22.540Z,2.58
2022-11-17T05:08:50.235Z,2.30
2022-11-17T05:11:36.697Z,2.03
2022-11-17T05:14:04.150Z,2.25
2022-11-17T05:16:49.547Z,2.17
2022-11-17T05:19:19.920Z,2.08
2022-11-17T05:21:47.040Z,2.10
2022-11-17T05:24:15.019Z,1.95
2022-11-17T05:26:44.079Z,1.80
2022-11-17T05:29:13.910Z,2.17
2022-11-17T05:31:41.184Z,1.88
2022-11-17T05:34:10.621Z,1.80
2022-11-17T05:36:37.725Z,1.92
2022-11-17T05:39:18.131Z,2.35
2022-11-17T05:42:06.341Z,1.95
2022-11-17T05:44:33.604Z,2.58
2022-11-17T05:47:00.640Z,2.72
2022-11-17T05:49:27.689Z,2.60
2022-11-17T05:51:54.770Z,2.38
2022-11-17T05:54:21.839Z,2.22
2022-11-17T05:56:55.131Z,2.20
2022-11-17T05:59:30.978Z,2.28
2022-11-17T06:02:18.063Z,1.98
2022-11-17T06:04:46.504Z,2.17
2022-11-17T06:07:13.828Z,2.30
2022-11-17T06:09:42.623Z,2.47
2022-11-17T06:12:12.344Z,1.63
2022-11-17T06:14:40.113Z,2.30
2022-11-17T06:17:22.496Z,1.98
2022-11-17T06:19:56.030Z,2.60
2022-11-17T06:22:24.828Z,1.87
2022-11-17T06:24:52.883Z,2.00
2022-11-17T06:27:19.909Z,2.65
2022-11-17T06:29:47.831Z,2.45
2022-11-17T06:32:16.348Z,2.30
2022-11-17T06:34:49.105Z,2.53
2022-11-17T06:37:19.190Z,2.78
2022-11-17T06:39:46.327Z,2.40
2022-11-17T06:42:13.366Z,2.53
2022-11-17T06:44:40.412Z,2.72
2022-11-17T06:47:07.415Z,3.00
2022-11-17T06:49:34.414Z,3.35
2022-11-17T06:52:01.541Z,3.30
2022-11-17T06:54:28.646Z,3.40
2022-11-17T06:56:55.718Z,3.17
2022-11-17T06:59:22.955Z,2.50
2022-11-17T07:01:49.993Z,2.47
2022-11-17T07:04:17.063Z,2.10
2022-11-17T07:06:44.195Z,2.75
2022-11-17T07:09:11.319Z,2.40
2022-11-17T07:11:38.366Z,2.78
2022-11-17T07:14:05.454Z,2.03
2022-11-17T07:16:32.934Z,2.20
2022-11-17T07:19:03.831Z,2.25
2022-11-17T07:21:31.487Z,1.98
2022-11-17T07:23:58.597Z,2.05
2022-11-17T07:26:25.682Z,1.90
2022-11-17T07:28:52.662Z,2.20
2022-11-17T07:31:19.759Z,2.35
2022-11-17T07:33:46.863Z,2.33
2022-11-17T07:36:17.088Z,2.05
2022-11-17T07:38:44.207Z,2.20
2022-11-17T07:41:13.958Z,2.78
2022-11-17T07:43:41.291Z,2.20
2022-11-17T07:46:13.006Z,2.80
2022-11-17T07:48:41.088Z,2.20
2022-11-17T07:51:08.161Z,2.10
2022-11-17T07:53:36.272Z,2.45
2022-11-17T07:56:08.619Z,2.30
2022-11-17T07:58:36.542Z,2.00
2022-11-17T08:01:08.387Z,3.00
2022-11-17T08:03:36.157Z,2.45
2022-11-17T08:06:05.115Z,2.47
2022-11-17T08:08:32.651Z,2.17
2022-11-17T08:11:08.037Z,2.20
2022-11-17T08:13:35.796Z,2.10
2022-11-17T08:16:03.592Z,2.08
2022-11-17T08:18:32.409Z,2.33
2022-11-17T08:21:09.254Z,2.60
2022-11-17T08:23:37.741Z,2.60
2022-11-17T08:26:05.838Z,2.85
2022-11-17T08:28:34.556Z,2.65
2022-11-17T08:31:05.812Z,2.83
2022-11-17T08:33:33.607Z,2.40
2022-11-17T08:36:02.197Z,3.17
2022-11-17T08:38:30.136Z,3.33
2022-11-17T08:41:03.660Z,2.60
2022-11-17T08:43:30.949Z,2.17
2022-11-17T08:45:58.172Z,2.40
2022-11-17T08:48:25.901Z,2.53
2022-11-17T08:50:53.079Z,3.40
2022-11-17T08:53:21.679Z,3.13
2022-11-17T08:55:49.226Z,2.40
2022-11-17T08:58:16.798Z,3.47
2022-11-17T09:00:45.710Z,3.53
2022-11-17T09:03:13.139Z,3.13
2022-11-17T09:05:42.248Z,2.40
2022-11-17T09:08:43.202Z,2.90
2022-11-17T09:10:57.685Z,2.67
2022-11-17T09:13:24.844Z,2.92
2022-11-17T09:15:51.878Z,3.22
2022-11-17T09:18:19.024Z,2.97
2022-11-17T09:20:46.610Z,3.00
2022-11-17T09:23:13.783Z,2.58
2022-11-17T09:25:40.887Z,2.50
2022-11-17T09:28:07.964Z,2.20
2022-11-17T09:30:35.215Z,2.90
2022-11-17T09:33:02.275Z,2.42
2022-11-17T09:35:29.364Z,2.78
2022-11-17T09:38:01.067Z,3.03
2022-11-17T09:40:31.839Z,3.63
2022-11-17T09:43:01.947Z,3.55
2022-11-17T09:45:34.446Z,3.42
2022-11-17T09:48:34.070Z,3.42
2022-11-17T09:50:58.082Z,6.22
2022-11-17T09:53:44.206Z,5.10
2022-11-17T09:56:13.961Z,6.60
2022-11-17T09:58:57.287Z,13.90
2022-11-17T10:01:27.738Z,13.20
2022-11-17T10:03:57.184Z,9.75
2022-11-17T10:06:26.491Z,6.32
2022-11-17T10:09:14.997Z,5.07
2022-11-17T10:11:43.907Z,3.78
2022-11-17T10:14:16.722Z,3.10
2022-11-17T10:16:46.031Z,2.85
2022-11-17T10:19:32.620Z,4.10
2022-11-17T10:22:02.730Z,9.75
2022-11-17T10:24:43.458Z,10.93
2022-11-17T10:27:28.269Z,13.90
2022-11-17T10:30:22.779Z,16.15
2022-11-17T10:32:59.137Z,10.80
2022-11-17T10:35:34.002Z,6.53
2022-11-17T10:38:08.560Z,6.85
2022-11-17T10:40:39.111Z,9.18
2022-11-17T10:43:21.720Z,7.93
2022-11-17T10:45:52.774Z,10.73
2022-11-17T10:48:19.782Z,11.68
2022-11-17T10:50:54.258Z,18.42
2022-11-17T10:53:45.123Z,18.20
2022-11-17T10:56:19.322Z,12.45
2022-11-17T10:58:59.884Z,14.85
2022-11-17T11:01:36.209Z,16.23
2022-11-17T11:04:05.481Z,13.18
2022-11-17T11:06:34.438Z,12.52
2022-11-17T11:09:01.897Z,11.43
2022-11-17T11:11:42.627Z,8.25
2022-11-17T11:14:40.854Z,8.73
2022-11-17T11:17:16.864Z,6.63
2022-11-17T11:19:53.297Z,7.93
2022-11-17T11:22:32.285Z,6.18
2022-11-17T11:25:24.255Z,7.10
2022-11-17T11:28:00.844Z,8.80
2022-11-17T11:30:28.434Z,7.53
2022-11-17T11:33:36.710Z,8.13
2022-11-17T11:36:35.860Z,7.68
2022-11-17T11:39:11.098Z,8.00
2022-11-17T11:41:48.256Z,12.23
2022-11-17T11:44:22.738Z,13.75
2022-11-17T11:47:16.399Z,11.35
2022-11-17T11:49:51.885Z,9.83
2022-11-17T11:52:27.573Z,14.68
2022-11-17T11:55:20.662Z,20.67
2022-11-17T11:57:56.902Z,23.58
2022-11-17T12:00:24.103Z,21.05
2022-11-17T12:02:51.103Z,16.73
2022-11-17T12:05:30.394Z,11.77
2022-11-17T12:08:15.428Z,9.18
2022-11-17T12:10:54.625Z,13.95
2022-11-17T12:13:24.632Z,11.48
2022-11-17T12:15:53.708Z,11.77
2022-11-17T12:18:20.647Z,11.88
2022-11-17T12:20:54.128Z,11.43
2022-11-17T12:23:48.480Z,15.55
2022-11-17T12:29:19.949Z,22.23
2022-11-17T12:32:33.275Z,14.68
2022-11-17T12:35:28.999Z,12.90
2022-11-17T12:38:14.682Z,12.13
2022-11-17T12:40:49.499Z,11.52
2022-11-17T12:43:16.661Z,11.50
2022-11-17T12:45:52.933Z,10.02
2022-11-17T12:48:35.327Z,10.73
2022-11-17T12:51:16.227Z,10.93
2022-11-17T12:54:34.640Z,7.38
2022-11-17T12:57:27.496Z,5.75
2022-11-17T13:00:23.708Z,5.22
2022-11-17T13:03:15.230Z,3.72
2022-11-17T13:05:42.453Z,4.57
2022-11-17T13:08:23.307Z,4.55
2022-11-17T13:10:51.371Z,3.83
2022-11-17T13:13:19.912Z,5.35
2022-11-17T13:15:54.876Z,4.53
2022-11-17T13:18:38.457Z,4.00
2022-11-17T13:21:35.819Z,3.55
2022-11-17T13:24:02.999Z,4.43
2022-11-17T13:26:38.453Z,4.93
2022-11-17T13:29:13.470Z,7.22
2022-11-17T13:31:40.849Z,5.20
2022-11-17T13:34:16.912Z,5.32
2022-11-17T13:36:55.835Z,5.68
2022-11-17T13:39:27.044Z,4.88
2022-11-17T13:41:55.926Z,4.38
2022-11-17T13:44:25.822Z,4.53
2022-11-17T13:46:52.829Z,3.35
2022-11-17T13:49:36.797Z,4.13
2022-11-17T13:54:32.738Z,6.93
2022-11-17T13:57:09.171Z,5.13
2022-11-17T13:59:38.712Z,5.13
2022-11-17T14:02:20.904Z,3.22
2022-11-17T14:05:09.684Z,5.80
2022-11-17T14:07:38.704Z,4.30
2022-11-17T14:10:21.176Z,3.67
2022-11-17T14:12:50.300Z,4.22
2022-11-17T14:15:26.519Z,4.32
2022-11-17T14:17:55.924Z,4.88
2022-11-17T14:20:32.795Z,5.00
2022-11-17T14:23:11.546Z,4.35
2022-11-17T14:25:48.496Z,2.95
2022-11-17T14:28:21.011Z,3.28
2022-11-17T14:30:49.498Z,3.33
2022-11-17T14:33:16.618Z,3.72
2022-11-17T14:35:45.688Z,3.95
2022-11-17T14:38:16.765Z,3.50
2022-11-17T14:40:44.076Z,4.25
2022-11-17T14:43:11.491Z,3.70
2022-11-17T14:45:38.501Z,3.85
2022-11-17T14:48:08.792Z,4.05
2022-11-17T14:50:35.936Z,4.70
2022-11-17T14:53:03.142Z,3.70
2022-11-17T14:55:30.200Z,3.00
2022-11-17T14:57:57.408Z,4.22
2022-11-17T15:00:24.614Z,3.85
2022-11-17T15:02:51.740Z,3.50
2022-11-17T15:05:18.942Z,3.15
2022-11-17T15:07:46.126Z,2.85
2022-11-17T15:10:13.254Z,2.53
2022-11-17T15:12:40.327Z,2.83
2022-11-17T15:15:08.132Z,2.47
2022-11-17T15:17:35.233Z,2.78
2022-11-17T15:20:02.422Z,2.97
2022-11-17T15:22:29.525Z,2.63
2022-11-17T15:24:56.676Z,3.00
2022-11-17T15:27:24.085Z,3.30
2022-11-17T15:29:51.241Z,2.60
2022-11-17T15:32:18.349Z,2.90
2022-11-17T15:34:45.325Z,3.10
2022-11-17T15:37:12.546Z,2.97
2022-11-17T15:39:39.591Z,3.35
2022-11-17T15:42:06.691Z,2.80
2022-11-17T15:44:33.868Z,2.92
2022-11-17T15:47:00.910Z,3.55
2022-11-17T15:49:27.902Z,3.90
2022-11-17T15:51:55.166Z,3.58
2022-11-17T15:54:23.667Z,3.50
2022-11-17T15:56:52.035Z,4.38
2022-11-17T15:59:19.757Z,3.85
2022-11-17T16:01:47.223Z,2.83
2022-11-17T16:04:18.440Z,3.58
2022-11-17T16:06:46.789Z,3.47
2022-11-17T16:09:15.448Z,3.80
2022-11-17T16:11:42.987Z,4.00
2022-11-17T16:14:10.151Z,3.85
2022-11-17T16:16:39.374Z,3.05
2022-11-17T16:19:06.992Z,4.25
2022-11-17T16:21:34.155Z,3.95
2022-11-17T16:24:02.468Z,2.90
2022-11-17T16:26:30.282Z,3.53
2022-11-17T16:28:59.064Z,3.90
2022-11-17T16:31:29.466Z,2.90
2022-11-17T16:33:59.664Z,2.65
2022-11-17T16:36:34.537Z,2.28
2022-11-17T16:39:04.010Z,3.38
2022-11-17T16:41:38.984Z,3.13
2022-11-17T16:44:13.963Z,2.13
2022-11-17T16:46:46.182Z,2.80
2022-11-17T16:49:15.620Z,3.13
2022-11-17T16:51:51.020Z,2.45
2022-11-17T16:54:19.188Z,2.58
2022-11-17T16:56:47.225Z,2.80
2022-11-17T16:59:15.144Z,2.80
2022-11-17T17:01:42.405Z,2.50
2022-11-17T17:04:10.638Z,2.35
2022-11-17T17:06:43.515Z,2.08
2022-11-17T17:09:12.538Z,2.58
2022-11-17T17:11:40.461Z,2.45
2022-11-17T17:14:09.897Z,3.00
2022-11-17T17:16:38.229Z,2.58
2022-11-17T17:19:07.681Z,2.72
2022-11-17T17:21:36.468Z,2.60
2022-11-17T17:24:04.200Z,2.63
2022-11-17T17:26:32.796Z,2.20
2022-11-17T17:29:01.624Z,2.92
2022-11-17T17:31:37.551Z,2.80
2022-11-17T17:34:06.444Z,2.33
2022-11-17T17:36:34.531Z,3.20
2022-11-17T17:39:02.538Z,3.35
2022-11-17T17:41:32.173Z,2.67
2022-11-17T17:44:07.487Z,3.30
2022-11-17T17:46:36.770Z,4.18
2022-11-17T17:49:04.349Z,5.28
2022-11-17T17:51:31.633Z,4.22
2022-11-17T17:54:01.247Z,3.25
2022-11-17T17:56:31.068Z,4.35
2022-11-17T17:58:58.754Z,4.07
2022-11-17T18:01:27.342Z,4.63
2022-11-17T18:04:01.595Z,3.97
2022-11-17T18:06:28.948Z,4.50
2022-11-17T18:08:57.897Z,4.70
2022-11-17T18:11:25.837Z,5.28
2022-11-17T18:13:53.789Z,6.10
2022-11-17T18:16:30.181Z,5.22
2022-11-17T18:19:05.398Z,4.32
2022-11-17T18:21:33.514Z,4.88
2022-11-17T18:24:02.484Z,4.68
2022-11-17T18:26:33.018Z,4.40
2022-11-17T18:29:02.714Z,4.35
2022-11-17T18:31:33.004Z,4.18
2022-11-17T18:34:16.338Z,4.80
2022-11-17T18:36:43.927Z,3.50
2022-11-17T18:39:11.313Z,3.67
2022-11-17T18:41:38.576Z,4.22
2022-11-17T18:44:06.189Z,7.30
2022-11-17T18:46:34.609Z,13.35
2022-11-17T18:49:02.077Z,15.55
2022-11-17T18:51:32.053Z,15.80
2022-11-17T18:54:01.250Z,12.07
2022-11-17T18:56:32.260Z,8.85
2022-11-17T18:58:59.808Z,9.98
2022-11-17T19:01:29.264Z,9.02
2022-11-17T19:04:00.702Z,8.20
2022-11-17T19:06:28.763Z,6.55
2022-11-17T19:08:58.602Z,5.95
2022-11-17T19:11:26.543Z,4.63
2022-11-17T19:13:53.876Z,6.10
2022-11-17T19:16:24.015Z,9.48
2022-11-17T19:18:53.989Z,13.10
2022-11-17T19:21:41.439Z,8.15
2022-11-17T19:24:09.703Z,7.78
2022-11-17T19:26:37.789Z,7.82
2022-11-17T19:29:14.327Z,8.00
2022-11-17T19:31:44.298Z,7.32
2022-11-17T19:34:11.810Z,7.78
2022-11-17T19:36:39.447Z,6.53
2022-11-17T19:39:06.663Z,5.07
2022-11-17T19:41:38.846Z,5.07
2022-11-17T19:44:09.839Z,6.07
2022-11-17T19:46:37.427Z,4.97
2022-11-17T19:49:06.387Z,4.75
2022-11-17T19:51:37.246Z,4.68
2022-11-17T19:54:07.996Z,4.28
2022-11-17T19:56:35.750Z,4.65
2022-11-17T19:59:03.773Z,4.93
2022-11-17T20:01:32.340Z,6.20
2022-11-17T20:04:01.183Z,11.15
2022-11-17T20:06:37.280Z,13.25
2022-11-17T20:09:13.548Z,21.83
2022-11-17T20:11:41.612Z,12.73
2022-11-17T20:14:08.878Z,9.13
2022-11-17T20:16:37.243Z,7.13
2022-11-17T20:19:04.580Z,7.15
2022-11-17T20:21:31.794Z,6.25
2022-11-17T20:23:59.613Z,5.90
2022-11-17T20:26:29.516Z,5.80
2022-11-17T20:28:58.043Z,6.30
2022-11-17T20:31:27.656Z,7.18
2022-11-17T20:33:57.799Z,5.90
2022-11-17T20:36:25.208Z,5.43
2022-11-17T20:38:57.481Z,6.40
2022-11-17T20:41:25.843Z,5.80
2022-11-17T20:43:55.332Z,6.50
2022-11-17T20:46:23.890Z,6.15
2022-11-17T20:48:51.331Z,6.47
2022-11-17T20:51:23.649Z,7.10
2022-11-17T20:53:51.105Z,6.97
2022-11-17T20:56:18.613Z,8.45
2022-11-17T20:58:45.701Z,7.82
2022-11-17T21:01:15.358Z,8.15
2022-11-17T21:03:43.274Z,8.07
2022-11-17T21:06:10.880Z,6.90
2022-11-17T21:08:40.684Z,6.90
2022-11-17T21:11:33.448Z,7.32
2022-11-17T21:14:00.730Z,7.07
2022-11-17T21:16:28.173Z,6.80
2022-11-17T21:18:55.626Z,6.03
2022-11-17T21:21:22.758Z,7.38
2022-11-17T21:23:53.764Z,7.13
2022-11-17T21:26:21.469Z,8.05
2022-11-17T21:28:48.878Z,6.75
2022-11-17T21:31:21.811Z,6.22
2022-11-17T21:33:53.851Z,7.73
2022-11-17T21:36:22.309Z,7.18
2022-11-17T21:38:49.483Z,7.93
2022-11-17T21:41:21.679Z,6.72
2022-11-17T21:43:50.236Z,8.25
2022-11-17T21:46:19.728Z,6.60
2022-11-17T21:48:47.712Z,7.13
2022-11-17T21:51:16.404Z,6.10
2022-11-17T21:53:44.412Z,6.45
2022-11-17T21:56:12.474Z,6.00
2022-11-17T21:58:40.453Z,5.75
2022-11-17T22:01:16.943Z,5.60
2022-11-17T22:03:44.080Z,5.18
2022-11-17T22:06:14.249Z,5.55
2022-11-17T22:08:43.162Z,5.97
2022-11-17T22:11:35.905Z,5.55
2022-11-17T22:14:07.715Z,5.57
2022-11-17T22:16:40.181Z,5.57
2022-11-17T22:19:08.344Z,6.03
2022-11-17T22:21:39.053Z,5.88
2022-11-17T22:24:07.943Z,5.40
2022-11-17T22:26:38.788Z,5.85
2022-11-17T22:29:08.324Z,6.70
2022-11-17T22:31:35.346Z,6.15
2022-11-17T22:34:02.410Z,5.13
2022-11-17T22:36:29.891Z,5.65
2022-11-17T22:38:56.898Z,6.10
2022-11-17T22:41:24.258Z,5.53
2022-11-17T22:43:52.449Z,5.25
2022-11-17T22:46:20.575Z,4.50
2022-11-17T22:48:47.882Z,4.80
2022-11-17T22:51:35.207Z,5.30
2022-11-17T22:54:02.716Z,5.45
2022-11-17T22:56:29.879Z,5.35
2022-11-17T22:58:59.868Z,5.25
2022-11-17T23:01:30.022Z,4.85
2022-11-17T23:03:57.258Z,5.05
2022-11-17T23:06:24.585Z,5.55
2022-11-17T23:08:51.876Z,5.97
2022-11-17T23:11:36.590Z,5.45
2022-11-17T23:14:04.282Z,4.90
2022-11-17T23:16:32.427Z,4.47
2022-11-17T23:18:59.507Z,4.63
2022-11-17T23:21:26.770Z,4.38
2022-11-17T23:23:53.824Z,5.53
2022-11-17T23:26:21.214Z,5.15
2022-11-17T23:28:49.652Z,4.75
2022-11-17T23:31:17.596Z,4.93
2022-11-17T23:33:47.200Z,5.35
2022-11-17T23:36:16.861Z,4.60
2022-11-17T23:38:44.581Z,3.92
2022-11-17T23:41:14.036Z,3.83
2022-11-17T23:43:41.531Z,4.20
2022-11-17T23:46:12.694Z,3.72
2022-11-17T23:48:40.128Z,3.90
2022-11-17T23:51:13.198Z,3.88
2022-11-17T23:53:40.872Z,3.67
2022-11-17T23:56:08.728Z,3.78
2022-11-17T23:58:36.068Z,3.35
